Time;durP1;ratioP1;P1;durP2;ratioP2;P2;SDS_P1;SDS_P2;PMS_P1;PMS_P2;Temp;Humidity;BMP_temperature;BMP_pressure;BME280_temperature;BME280_humidity;BME280_pressure;Samples;Min_cycle;Max_cycle;Signal;HPM_P1;HPM_P2
2022/07/22 00:02:23;;;;;;;10.00;3.10;;;17.20;99.90;;;;;;5002602;28;20078;-33
2022/07/22 00:04:50;;;;;;;8.63;2.65;;;17.20;99.90;;;;;;4994543;28;20082;-32
2022/07/22 00:07:16;;;;;;;17.50;3.50;;;17.20;99.90;;;;;;5005446;28;20046;-33
2022/07/22 00:09:43;;;;;;;13.82;3.47;;;17.20;99.90;;;;;;4977379;28;20133;-33
2022/07/22 00:12:11;;;;;;;7.32;2.47;;;17.20;99.90;;;;;;4982150;28;20137;-33
2022/07/22 00:14:38;;;;;;;13.23;3.03;;;17.20;99.90;;;;;;4976884;28;20081;-34
2022/07/22 00:17:05;;;;;;;8.15;2.40;;;17.20;99.90;;;;;;4994915;28;20133;-33
2022/07/22 00:19:31;;;;;;;12.48;2.90;;;17.20;99.90;;;;;;4996981;28;20081;-33
2022/07/22 00:21:58;;;;;;;13.23;3.22;;;17.20;99.90;;;;;;4992382;28;20125;-33
2022/07/22 00:24:25;;;;;;;16.85;3.22;;;17.10;99.90;;;;;;4976149;28;20078;-33
2022/07/22 00:26:52;;;;;;;9.98;2.92;;;17.10;99.90;;;;;;4977246;28;20076;-33
2022/07/22 00:29:20;;;;;;;20.38;3.50;;;17.20;99.90;;;;;;4992930;28;20050;-33
2022/07/22 00:31:46;;;;;;;13.30;2.97;;;17.10;99.90;;;;;;4994114;28;20137;-33
2022/07/22 00:34:13;;;;;;;16.40;3.90;;;17.10;99.90;;;;;;4976909;28;20085;-33
2022/07/22 00:36:40;;;;;;;12.20;2.80;;;17.10;99.90;;;;;;4992042;28;20089;-33
2022/07/22 00:39:07;;;;;;;11.35;3.08;;;17.10;99.90;;;;;;4986664;28;20058;-33
2022/07/22 00:41:34;;;;;;;14.93;3.15;;;17.10;99.90;;;;;;4985912;28;20133;-33
2022/07/22 00:44:02;;;;;;;11.55;3.00;;;17.10;99.90;;;;;;4994683;28;20442;-33
2022/07/22 00:46:30;;;;;;;9.60;2.63;;;17.10;99.90;;;;;;4993951;28;20597;-33
2022/07/22 00:48:57;;;;;;;11.23;3.05;;;17.10;99.90;;;;;;4992810;28;20394;-33
2022/07/22 00:51:24;;;;;;;16.92;3.45;;;17.10;99.90;;;;;;4992396;28;20399;-33
2022/07/22 00:53:52;;;;;;;10.93;2.80;;;17.10;99.90;;;;;;4975038;28;20085;-33
2022/07/22 00:56:18;;;;;;;12.00;3.08;;;17.10;99.90;;;;;;4974695;28;20320;-33
2022/07/22 00:58:45;;;;;;;10.23;2.55;;;17.10;99.90;;;;;;4994155;28;20097;-33
2022/07/22 01:01:12;;;;;;;7.95;2.30;;;17.10;99.90;;;;;;4980706;28;20140;-33
2022/07/22 01:03:41;;;;;;;12.43;2.75;;;17.10;99.90;;;;;;4998505;28;20070;-32
2022/07/22 01:06:08;;;;;;;12.68;2.42;;;17.10;99.90;;;;;;4993703;28;20132;-33
2022/07/22 01:08:34;;;;;;;6.93;2.25;;;17.10;99.90;;;;;;4975948;28;20082;-33
2022/07/22 01:11:08;;;;;;;11.10;2.63;;;17.10;99.90;;;;;;4991044;28;20050;-32
2022/07/22 01:13:35;;;;;;;13.75;2.60;;;17.10;99.90;;;;;;4972088;28;20086;-32
2022/07/22 01:16:02;;;;;;;12.88;3.03;;;17.10;99.90;;;;;;4976197;28;20070;-32
2022/07/22 01:18:28;;;;;;;9.35;2.83;;;17.10;99.90;;;;;;4975110;28;20468;-32
2022/07/22 01:20:56;;;;;;;11.23;2.30;;;17.10;99.90;;;;;;4991828;28;20546;-32
2022/07/22 01:23:23;;;;;;;11.57;2.70;;;17.10;99.90;;;;;;4974771;28;20401;-32
2022/07/22 01:25:50;;;;;;;10.85;2.97;;;17.10;99.90;;;;;;4990652;28;20477;-32
2022/07/22 01:28:17;;;;;;;11.73;2.50;;;17.00;99.90;;;;;;4975764;28;20060;-32
2022/07/22 01:30:43;;;;;;;17.00;2.80;;;17.10;99.90;;;;;;5009257;28;20529;-32
2022/07/22 01:33:10;;;;;;;13.20;2.53;;;17.00;99.90;;;;;;5008786;28;20059;-32
2022/07/22 01:35:37;;;;;;;15.43;2.85;;;17.10;99.90;;;;;;4991148;28;20121;-32
2022/07/22 01:38:05;;;;;;;12.13;2.85;;;17.00;99.90;;;;;;4991916;28;20042;-32
2022/07/22 01:40:32;;;;;;;10.65;2.25;;;17.10;99.90;;;;;;4992435;28;20505;-32
2022/07/22 01:42:58;;;;;;;10.70;2.17;;;17.00;99.90;;;;;;4993268;28;20085;-32
2022/07/22 01:45:25;;;;;;;9.32;2.30;;;17.00;99.90;;;;;;4987247;28;20142;-32
2022/07/22 01:47:52;;;;;;;13.50;2.92;;;17.00;99.90;;;;;;4974495;28;20137;-32
2022/07/22 01:50:19;;;;;;;11.02;2.75;;;17.00;99.90;;;;;;4992561;28;20554;-32
2022/07/22 01:52:45;;;;;;;10.45;3.15;;;17.00;99.90;;;;;;4992564;28;20052;-32
2022/07/22 01:55:13;;;;;;;10.27;2.63;;;16.90;99.90;;;;;;4989198;28;20403;-32
2022/07/22 01:57:40;;;;;;;11.18;2.78;;;16.90;99.90;;;;;;4972297;28;20604;-32
2022/07/22 02:00:08;;;;;;;11.75;2.40;;;16.90;99.90;;;;;;4989939;28;20074;-32
2022/07/22 02:02:35;;;;;;;8.52;2.35;;;16.80;99.90;;;;;;4992428;28;20054;-32
2022/07/22 02:05:02;;;;;;;12.35;2.45;;;16.80;99.90;;;;;;4993074;28;20156;-32
2022/07/22 02:07:29;;;;;;;5.82;2.05;;;16.80;99.90;;;;;;4991501;28;20086;-32
2022/07/22 02:09:55;;;;;;;6.90;2.17;;;16.80;99.90;;;;;;4983350;28;20078;-32
2022/07/22 02:12:23;;;;;;;11.68;2.63;;;16.80;99.90;;;;;;4981364;28;20133;-32
2022/07/22 02:14:50;;;;;;;10.45;2.50;;;16.80;99.90;;;;;;4985618;28;20162;-32
2022/07/22 02:17:17;;;;;;;8.48;2.35;;;16.90;99.90;;;;;;4971431;28;20129;-32
2022/07/22 02:19:44;;;;;;;10.57;3.30;;;16.80;99.90;;;;;;4990026;28;20133;-32
2022/07/22 02:22:10;;;;;;;14.52;2.67;;;16.80;99.90;;;;;;4992002;28;20133;-32
2022/07/22 02:24:37;;;;;;;11.35;2.38;;;16.80;99.90;;;;;;4991652;28;20137;-32
2022/07/22 02:27:04;;;;;;;7.50;1.90;;;16.90;99.90;;;;;;4992774;28;20054;-32
2022/07/22 02:29:33;;;;;;;10.13;2.25;;;16.90;99.90;;;;;;4990480;28;20054;-32
2022/07/22 02:31:59;;;;;;;16.13;3.08;;;16.80;99.90;;;;;;4992416;28;20050;-32
2022/07/22 02:34:26;;;;;;;11.25;2.17;;;16.80;99.90;;;;;;4991727;28;20109;-32
2022/07/22 02:36:53;;;;;;;7.90;2.50;;;16.80;99.90;;;;;;4995402;28;20049;-32
2022/07/22 02:39:20;;;;;;;8.45;2.33;;;16.80;99.90;;;;;;4978290;28;20479;-32
2022/07/22 02:41:46;;;;;;;7.93;2.10;;;16.90;99.90;;;;;;4991102;28;20077;-32
2022/07/22 02:44:13;;;;;;;10.45;2.50;;;16.80;99.90;;;;;;4957888;28;20063;-32
2022/07/22 02:46:41;;;;;;;7.03;2.28;;;16.90;99.90;;;;;;4993045;28;20160;-32
2022/07/22 02:49:08;;;;;;;11.30;2.55;;;16.90;99.90;;;;;;4974516;28;20473;-32
2022/07/22 02:51:35;;;;;;;10.55;1.90;;;16.90;99.90;;;;;;4975510;28;20065;-32
2022/07/22 02:54:01;;;;;;;7.22;2.00;;;16.90;99.90;;;;;;4985988;28;20129;-32
2022/07/22 02:56:28;;;;;;;8.25;2.50;;;16.90;99.90;;;;;;4994434;28;20155;-32
2022/07/22 02:58:55;;;;;;;8.82;1.88;;;16.90;99.90;;;;;;4975306;28;20141;-32
2022/07/22 03:01:22;;;;;;;8.23;2.20;;;16.90;99.90;;;;;;4992473;28;20463;-32
2022/07/22 03:03:50;;;;;;;9.70;2.40;;;16.90;99.90;;;;;;4991227;28;20137;-32
2022/07/22 03:06:16;;;;;;;6.45;2.15;;;16.80;99.90;;;;;;4991115;28;20142;-33
2022/07/22 03:08:43;;;;;;;14.48;2.25;;;16.90;99.90;;;;;;4991639;28;20405;-32
2022/07/22 03:11:10;;;;;;;10.95;2.30;;;16.90;99.90;;;;;;4982137;28;20659;-33
2022/07/22 03:13:37;;;;;;;8.20;1.90;;;16.90;99.90;;;;;;4991554;28;20487;-33
2022/07/22 03:16:04;;;;;;;9.45;2.60;;;16.90;99.90;;;;;;4991352;28;20517;-33
2022/07/22 03:18:30;;;;;;;13.60;3.20;;;16.90;99.90;;;;;;4989232;28;20086;-33
2022/07/22 03:20:58;;;;;;;6.80;1.75;;;16.90;99.90;;;;;;4992126;28;20125;-32
2022/07/22 03:23:25;;;;;;;15.68;2.45;;;16.90;99.90;;;;;;4993285;28;20046;-32
2022/07/22 03:25:52;;;;;;;6.20;2.25;;;16.80;99.90;;;;;;4995416;28;20507;-32
2022/07/22 03:28:19;;;;;;;9.38;2.03;;;16.90;99.90;;;;;;4999979;28;20056;-32
2022/07/22 03:30:45;;;;;;;9.63;2.40;;;16.90;99.90;;;;;;5003913;28;20050;-32
2022/07/22 03:33:12;;;;;;;8.05;2.20;;;16.80;99.90;;;;;;5005088;28;20042;-32
2022/07/22 03:35:39;;;;;;;8.63;2.55;;;16.80;99.90;;;;;;4994772;28;20113;-33
2022/07/22 03:38:07;;;;;;;8.35;2.33;;;16.80;99.90;;;;;;4988283;28;20050;-32
2022/07/22 03:40:34;;;;;;;6.38;1.90;;;16.80;99.90;;;;;;4990442;28;20117;-33
2022/07/22 03:43:00;;;;;;;11.88;2.35;;;16.80;99.90;;;;;;4975635;28;20136;-33
2022/07/22 03:45:27;;;;;;;7.97;1.95;;;16.80;99.90;;;;;;4977495;28;20089;-32
2022/07/22 03:47:56;;;;;;;6.80;2.13;;;16.80;99.90;;;;;;4994981;28;20073;-33
2022/07/22 03:50:23;;;;;;;8.77;2.38;;;16.80;99.90;;;;;;4993914;28;20046;-33
2022/07/22 03:52:50;;;;;;;7.50;2.63;;;16.80;99.90;;;;;;4989179;28;20101;-33
2022/07/22 03:55:18;;;;;;;5.97;2.08;;;16.80;99.90;;;;;;4992438;28;20391;-33
2022/07/22 03:57:45;;;;;;;10.18;2.63;;;16.80;99.90;;;;;;4976455;28;20090;-33
2022/07/22 04:00:12;;;;;;;8.30;2.25;;;16.80;99.90;;;;;;5006222;28;20054;-33
2022/07/22 04:02:39;;;;;;;10.48;2.13;;;16.80;99.90;;;;;;4978634;28;20185;-33
2022/07/22 04:05:07;;;;;;;8.45;2.38;;;16.80;99.90;;;;;;4993396;28;20093;-32
2022/07/22 04:07:33;;;;;;;7.68;2.30;;;16.80;99.90;;;;;;4975210;28;20879;-33
2022/07/22 04:10:05;;;;;;;7.18;2.30;;;16.80;99.90;;;;;;4994989;28;20562;-33
2022/07/22 04:12:34;;;;;;;16.13;2.50;;;16.80;99.90;;;;;;4992714;28;20046;-33
2022/07/22 04:15:01;;;;;;;8.35;2.03;;;16.80;99.90;;;;;;4991484;28;20133;-33
2022/07/22 04:17:28;;;;;;;7.60;2.35;;;16.80;99.90;;;;;;4976346;28;20133;-33
2022/07/22 04:19:54;;;;;;;4.95;2.05;;;16.80;99.90;;;;;;4993240;28;20137;-33
2022/07/22 04:22:21;;;;;;;7.75;2.55;;;16.80;99.90;;;;;;4975509;28;20050;-33
2022/07/22 04:24:48;;;;;;;10.68;2.67;;;16.80;99.90;;;;;;4993419;28;20136;-33
2022/07/22 04:27:15;;;;;;;8.40;2.10;;;16.70;99.90;;;;;;4997850;28;20431;-33
2022/07/22 04:29:43;;;;;;;9.95;2.28;;;16.80;99.90;;;;;;4974608;28;21212;-33
2022/07/22 04:32:09;;;;;;;8.80;2.25;;;16.80;99.90;;;;;;4982982;28;20100;-33
2022/07/22 04:34:36;;;;;;;10.65;2.50;;;16.70;99.90;;;;;;4994722;28;20046;-33
2022/07/22 04:37:03;;;;;;;9.98;2.28;;;16.70;99.90;;;;;;4991050;28;20250;-33
2022/07/22 04:39:30;;;;;;;6.90;2.15;;;16.70;99.90;;;;;;4994890;28;20141;-33
2022/07/22 04:41:57;;;;;;;12.07;2.20;;;16.70;99.90;;;;;;4992859;28;20554;-33
2022/07/22 04:44:23;;;;;;;8.27;2.15;;;16.70;99.90;;;;;;4993585;28;20138;-33
2022/07/22 04:46:51;;;;;;;10.60;2.13;;;16.70;99.90;;;;;;4992725;28;20101;-33
2022/07/22 04:49:18;;;;;;;5.90;2.28;;;16.70;99.90;;;;;;4991543;28;20078;-33
2022/07/22 04:51:45;;;;;;;8.43;2.10;;;16.70;99.90;;;;;;4993504;28;20133;-33
2022/07/22 04:54:12;;;;;;;7.85;2.33;;;16.70;99.90;;;;;;4982233;28;20483;-33
2022/07/22 04:56:39;;;;;;;4.85;1.60;;;16.70;99.90;;;;;;4993901;28;20351;-33
2022/07/22 04:59:05;;;;;;;8.20;1.92;;;16.70;99.90;;;;;;4977264;28;20084;-33
2022/07/22 05:01:32;;;;;;;7.95;1.95;;;16.80;99.90;;;;;;4990691;28;20085;-33
2022/07/22 05:04:00;;;;;;;9.75;2.20;;;16.70;99.90;;;;;;4990554;28;20120;-33
2022/07/22 05:06:27;;;;;;;9.43;2.60;;;16.80;99.90;;;;;;4993034;28;20096;-34
2022/07/22 05:08:54;;;;;;;8.57;2.05;;;16.80;99.90;;;;;;4976779;28;20561;-33
2022/07/22 05:11:20;;;;;;;5.88;2.10;;;16.80;99.90;;;;;;4992939;28;20046;-34
2022/07/22 05:13:48;;;;;;;8.93;2.10;;;16.90;99.90;;;;;;4991841;28;20042;-34
2022/07/22 05:16:14;;;;;;;6.82;2.72;;;16.90;99.90;;;;;;4975053;28;20455;-34
2022/07/22 05:18:41;;;;;;;10.95;2.17;;;16.90;99.90;;;;;;4974913;28;20081;-33
2022/07/22 05:21:09;;;;;;;5.97;2.03;;;16.90;99.90;;;;;;4976248;28;20642;-33
2022/07/22 05:23:36;;;;;;;10.65;2.20;;;17.00;99.90;;;;;;4991950;28;20129;-33
2022/07/22 05:26:04;;;;;;;10.32;2.30;;;17.00;99.90;;;;;;4993019;28;20148;-33
2022/07/22 05:28:31;;;;;;;9.48;1.95;;;17.00;99.90;;;;;;4974375;28;20605;-34
2022/07/22 05:30:58;;;;;;;9.52;2.30;;;17.00;99.90;;;;;;4992817;28;20133;-33
2022/07/22 05:33:24;;;;;;;4.88;2.00;;;17.00;99.90;;;;;;4979504;28;20060;-33
2022/07/22 05:35:51;;;;;;;6.28;2.00;;;17.00;99.90;;;;;;4973993;28;20081;-33
2022/07/22 05:38:19;;;;;;;10.13;2.30;;;17.00;99.90;;;;;;4988993;28;20189;-33
2022/07/22 05:40:46;;;;;;;8.27;2.33;;;17.00;99.90;;;;;;4992383;28;20137;-33
2022/07/22 05:43:13;;;;;;;9.13;2.17;;;17.10;99.90;;;;;;4991871;28;20150;-33
2022/07/22 05:45:40;;;;;;;8.40;1.92;;;17.10;99.90;;;;;;4977674;28;20153;-33
2022/07/22 05:48:10;;;;;;;4.03;1.92;;;17.10;99.90;;;;;;4971907;28;20062;-33
2022/07/22 05:50:36;;;;;;;6.70;1.80;;;17.10;99.90;;;;;;4971415;28;20133;-33
2022/07/22 05:53:03;;;;;;;9.65;2.30;;;17.10;99.90;;;;;;4974879;28;20120;-33
2022/07/22 05:55:31;;;;;;;6.78;2.15;;;17.20;99.90;;;;;;4991471;28;20141;-33
2022/07/22 05:57:58;;;;;;;5.25;1.95;;;17.20;99.90;;;;;;4991228;28;20129;-33
2022/07/22 06:00:25;;;;;;;10.13;2.22;;;17.20;99.90;;;;;;4973152;28;20474;-33
2022/07/22 06:02:51;;;;;;;11.00;2.30;;;17.30;99.90;;;;;;4991632;28;20146;-33
2022/07/22 06:05:18;;;;;;;7.57;2.30;;;17.30;99.90;;;;;;4989462;28;20137;-33
2022/07/22 06:07:45;;;;;;;10.65;2.53;;;17.30;99.90;;;;;;4988157;28;20054;-33
2022/07/22 06:10:12;;;;;;;12.32;2.15;;;17.30;99.90;;;;;;4967498;28;20054;-33
2022/07/22 06:12:40;;;;;;;6.18;1.80;;;17.30;99.90;;;;;;4990403;28;20112;-33
2022/07/22 06:15:07;;;;;;;8.75;2.40;;;17.30;99.90;;;;;;4974207;28;20129;-33
2022/07/22 06:17:34;;;;;;;7.82;2.00;;;17.40;99.90;;;;;;4990567;28;20549;-34
2022/07/22 06:20:01;;;;;;;8.40;2.20;;;17.40;99.90;;;;;;4990560;28;20134;-33
2022/07/22 06:22:27;;;;;;;9.07;2.15;;;17.40;99.90;;;;;;4991923;28;20112;-33
2022/07/22 06:24:54;;;;;;;10.00;2.10;;;17.40;99.90;;;;;;4990845;28;20154;-33
2022/07/22 06:27:21;;;;;;;10.95;2.20;;;17.40;99.90;;;;;;4974718;28;20133;-33
2022/07/22 06:29:49;;;;;;;5.78;2.00;;;17.50;99.90;;;;;;4991437;28;20129;-33
2022/07/22 06:32:16;;;;;;;6.35;1.83;;;17.50;99.90;;;;;;4991111;28;20477;-33
2022/07/22 06:34:43;;;;;;;20.95;2.17;;;17.50;99.90;;;;;;4981895;28;20054;-33
2022/07/22 06:37:10;;;;;;;8.02;1.77;;;17.60;99.90;;;;;;4991117;28;20058;-33
2022/07/22 06:39:36;;;;;;;6.28;1.38;;;17.60;99.90;;;;;;4984265;28;20051;-33
2022/07/22 06:42:03;;;;;;;10.25;1.63;;;17.60;99.90;;;;;;4991716;28;20140;-33
2022/07/22 06:44:30;;;;;;;7.70;2.00;;;17.60;99.90;;;;;;4985955;28;20130;-32
2022/07/22 06:46:58;;;;;;;7.45;2.05;;;17.60;99.90;;;;;;4994481;28;20144;-32
2022/07/22 06:49:25;;;;;;;8.73;1.45;;;17.60;99.90;;;;;;4989142;28;20105;-32
2022/07/22 06:51:52;;;;;;;10.70;2.47;;;17.60;99.90;;;;;;4973922;28;20062;-33
2022/07/22 06:54:19;;;;;;;6.00;1.63;;;17.60;99.90;;;;;;4973143;28;20166;-32
2022/07/22 06:56:45;;;;;;;9.93;1.80;;;17.70;99.90;;;;;;4990022;28;20133;-32
2022/07/22 06:59:12;;;;;;;5.13;1.50;;;17.70;99.90;;;;;;4988369;28;20081;-32
2022/07/22 07:01:39;;;;;;;9.18;1.70;;;17.80;99.90;;;;;;4993651;28;20117;-32
2022/07/22 07:04:07;;;;;;;8.60;2.13;;;17.80;99.90;;;;;;4993332;28;20088;-32
2022/07/22 07:06:34;;;;;;;6.40;1.85;;;17.90;99.90;;;;;;4988014;28;20141;-32
2022/07/22 07:09:00;;;;;;;7.32;1.75;;;17.90;99.90;;;;;;4995436;28;20137;-32
2022/07/22 07:11:27;;;;;;;4.15;1.77;;;18.00;99.90;;;;;;4976097;28;20184;-32
2022/07/22 07:13:54;;;;;;;11.18;2.25;;;18.00;99.90;;;;;;4994085;28;20062;-32
2022/07/22 07:16:21;;;;;;;12.23;1.48;;;18.10;99.90;;;;;;4992112;28;20124;-32
2022/07/22 07:18:47;;;;;;;5.88;1.60;;;18.20;99.80;;;;;;4995332;28;20137;-32
2022/07/22 07:21:15;;;;;;;8.65;1.80;;;18.30;99.10;;;;;;4976396;28;20146;-32
2022/07/22 07:23:42;;;;;;;4.63;1.30;;;18.30;98.70;;;;;;4993545;28;20109;-32
2022/07/22 07:26:10;;;;;;;6.03;1.42;;;18.30;98.60;;;;;;4976871;28;20466;-33
2022/07/22 07:28:37;;;;;;;4.22;1.38;;;18.40;98.40;;;;;;4993052;28;20090;-33
2022/07/22 07:31:03;;;;;;;8.48;1.35;;;18.40;98.20;;;;;;4993012;28;20057;-34
2022/07/22 07:33:30;;;;;;;5.82;1.50;;;18.40;97.80;;;;;;5002089;28;20060;-34
2022/07/22 07:35:57;;;;;;;9.65;1.40;;;18.50;97.90;;;;;;4994486;28;20062;-33
2022/07/22 07:38:25;;;;;;;6.90;1.48;;;18.50;97.90;;;;;;4991460;28;20138;-33
2022/07/22 07:40:51;;;;;;;6.00;1.48;;;18.50;97.80;;;;;;4982681;28;20078;-33
2022/07/22 07:43:18;;;;;;;8.65;1.60;;;18.60;97.90;;;;;;4994724;28;20082;-33
2022/07/22 07:45:45;;;;;;;6.93;1.38;;;18.60;97.50;;;;;;4992960;28;20449;-33
2022/07/22 07:48:12;;;;;;;5.35;1.42;;;18.60;97.50;;;;;;4994174;28;20092;-33
2022/07/22 07:50:38;;;;;;;4.78;1.20;;;18.70;97.50;;;;;;4994545;28;20064;-33
2022/07/22 07:53:05;;;;;;;7.50;1.80;;;18.70;97.50;;;;;;4977499;28;20064;-33
2022/07/22 07:55:35;;;;;;;13.73;2.25;;;18.80;97.50;;;;;;4981169;28;20050;-33
2022/07/22 07:58:02;;;;;;;10.50;1.77;;;18.90;97.60;;;;;;4994367;28;20068;-33
2022/07/22 08:00:32;;;;;;;5.22;1.40;;;18.90;96.60;;;;;;4994625;28;20402;-34
2022/07/22 08:02:58;;;;;;;7.50;1.50;;;18.90;96.80;;;;;;4977369;28;20054;-34
2022/07/22 08:05:25;;;;;;;4.65;1.40;;;18.90;96.70;;;;;;4993414;28;20068;-34
2022/07/22 08:07:52;;;;;;;3.30;1.30;;;18.90;96.50;;;;;;4994351;28;20058;-43
2022/07/22 08:10:19;;;;;;;6.47;1.67;;;18.90;96.40;;;;;;4975468;28;20070;-43
2022/07/22 08:12:48;;;;;;;6.43;1.55;;;18.90;96.20;;;;;;4993252;28;20050;-43
2022/07/22 08:15:14;;;;;;;5.95;1.30;;;18.90;96.20;;;;;;4979226;28;20468;-42
2022/07/22 08:17:41;;;;;;;6.40;1.70;;;18.90;95.90;;;;;;4991151;28;20077;-43
2022/07/22 08:20:09;;;;;;;3.92;1.55;;;19.00;96.10;;;;;;4993587;28;20105;-43
2022/07/22 08:22:35;;;;;;;5.10;1.30;;;19.00;96.00;;;;;;4993085;28;20100;-43
2022/07/22 08:25:02;;;;;;;6.15;1.73;;;19.00;96.20;;;;;;4992491;28;20054;-43
2022/07/22 08:27:29;;;;;;;5.32;1.40;;;19.00;96.10;;;;;;4994262;28;20113;-43
2022/07/22 08:29:57;;;;;;;5.47;1.50;;;19.00;96.10;;;;;;4985781;28;20062;-43
2022/07/22 08:32:24;;;;;;;4.70;1.40;;;19.00;96.30;;;;;;4983801;28;20177;-44
2022/07/22 08:34:51;;;;;;;6.43;1.40;;;19.10;96.20;;;;;;4993102;28;20089;-41
2022/07/22 08:37:18;;;;;;;5.70;1.60;;;19.10;95.90;;;;;;4992223;28;20086;-41
2022/07/22 08:39:44;;;;;;;4.88;1.70;;;19.10;96.00;;;;;;4993037;28;20042;-42
2022/07/22 08:42:13;;;;;;;9.35;1.77;;;19.10;96.10;;;;;;4980843;28;20105;-43
2022/07/22 08:44:40;;;;;;;5.07;1.60;;;19.20;96.10;;;;;;4976678;28;20058;-43
2022/07/22 08:47:08;;;;;;;6.55;1.40;;;19.10;96.10;;;;;;4993758;28;20570;-43
2022/07/22 08:49:35;;;;;;;11.90;2.20;;;19.20;96.00;;;;;;4988407;28;20157;-43
2022/07/22 08:52:02;;;;;;;7.30;1.60;;;19.30;96.20;;;;;;4992292;28;20120;-43
2022/07/22 08:54:29;;;;;;;9.00;2.08;;;19.30;96.20;;;;;;4987364;28;20057;-43
2022/07/22 08:56:55;;;;;;;5.50;1.67;;;19.40;96.10;;;;;;4992847;28;20082;-43
2022/07/22 08:59:22;;;;;;;5.25;1.25;;;19.40;95.80;;;;;;4992548;28;20141;-42
2022/07/22 09:02:09;;;;;;;8.05;1.60;;;19.40;96.20;;;;;;4991758;28;20446;-43
2022/07/22 09:04:51;;;;;;;7.18;1.50;;;19.40;95.90;;;;;;4993378;28;20054;-43
2022/07/22 09:07:27;;;;;;;5.65;1.67;;;19.50;95.90;;;;;;4993490;28;20054;-42
2022/07/22 09:09:54;;;;;;;7.65;1.55;;;19.50;95.50;;;;;;4992363;28;20378;-43
2022/07/22 09:12:22;;;;;;;5.97;1.20;;;19.50;95.30;;;;;;4991898;28;20050;-43
2022/07/22 09:14:49;;;;;;;9.50;1.75;;;19.60;95.10;;;;;;4993420;28;20058;-43
2022/07/22 09:17:28;;;;;;;4.95;1.35;;;19.70;95.10;;;;;;4975926;28;20129;-43
2022/07/22 09:19:55;;;;;;;5.70;1.30;;;19.80;94.60;;;;;;4993473;28;20081;-43
2022/07/22 09:22:35;;;;;;;8.88;1.83;;;19.90;94.50;;;;;;4992398;28;20042;-42
2022/07/22 09:25:23;;;;;;;6.28;1.38;;;20.00;94.20;;;;;;4991153;28;20129;-43
2022/07/22 09:27:51;;;;;;;4.95;1.40;;;20.10;94.40;;;;;;4992995;28;20054;-43
2022/07/22 09:30:18;;;;;;;5.03;1.40;;;20.10;94.20;;;;;;4991884;28;20136;-43
2022/07/22 09:32:46;;;;;;;6.22;1.15;;;20.20;94.00;;;;;;4975395;28;20084;-43
2022/07/22 09:35:13;;;;;;;7.20;1.88;;;20.20;93.60;;;;;;4992374;28;20060;-43
2022/07/22 09:37:51;;;;;;;4.55;1.20;;;20.20;93.50;;;;;;4977034;28;20133;-43
2022/07/22 09:40:19;;;;;;;4.45;1.10;;;20.20;93.50;;;;;;4990617;28;20422;-43
2022/07/22 09:42:47;;;;;;;4.57;1.33;;;20.20;93.60;;;;;;4973011;28;20141;-43
2022/07/22 09:45:14;;;;;;;6.40;1.40;;;20.30;93.70;;;;;;4990266;28;20136;-42
2022/07/22 09:47:42;;;;;;;6.55;1.20;;;20.40;93.80;;;;;;4991119;28;20092;-42
2022/07/22 09:50:16;;;;;;;6.43;1.15;;;20.40;93.60;;;;;;4974464;28;20054;-42
2022/07/22 09:52:43;;;;;;;7.05;1.58;;;20.50;93.40;;;;;;4990373;28;20149;-42
2022/07/22 09:55:12;;;;;;;6.22;1.02;;;20.50;93.60;;;;;;4992149;28;20583;-41
2022/07/22 09:57:38;;;;;;;8.48;1.48;;;20.50;93.00;;;;;;4990569;28;20050;-42
2022/07/22 10:00:09;;;;;;;3.58;1.00;;;20.40;92.90;;;;;;4992622;28;20116;-42
2022/07/22 10:02:36;;;;;;;6.30;1.20;;;20.40;92.80;;;;;;4990964;28;20446;-42
2022/07/22 10:05:04;;;;;;;2.35;1.00;;;20.40;93.10;;;;;;4974359;28;20066;-42
2022/07/22 10:07:32;;;;;;;4.47;1.20;;;20.40;93.30;;;;;;4992730;28;20491;-41
2022/07/22 10:09:58;;;;;;;5.45;1.38;;;20.40;93.70;;;;;;4992663;28;20121;-41
2022/07/22 10:12:26;;;;;;;6.88;1.25;;;20.40;93.70;;;;;;4989407;28;20477;-41
2022/07/22 10:14:53;;;;;;;4.45;1.30;;;20.40;93.90;;;;;;4991306;28;20105;-41
2022/07/22 10:17:19;;;;;;;7.32;1.33;;;20.30;94.10;;;;;;4990794;28;20131;-42
2022/07/22 10:19:46;;;;;;;7.60;2.05;;;20.30;93.90;;;;;;4993316;28;20132;-42
2022/07/22 10:22:46;;;;;;;4.22;1.05;;;20.30;93.90;;;;;;4993053;28;20129;-42
2022/07/22 10:25:15;;;;;;;7.65;1.30;;;20.30;94.00;;;;;;4993603;28;20051;-42
2022/07/22 10:27:44;;;;;;;7.88;0.95;;;20.30;94.00;;;;;;4991935;28;20430;-42
2022/07/22 10:30:12;;;;;;;5.22;1.00;;;20.40;94.00;;;;;;4992210;28;20050;-42
2022/07/22 10:32:38;;;;;;;4.00;0.90;;;20.30;93.00;;;;;;4977236;28;20475;-41
2022/07/22 10:35:23;;;;;;;4.90;0.70;;;20.30;93.30;;;;;;4982003;28;20141;-42
2022/07/22 10:37:52;;;;;;;3.80;1.00;;;20.30;93.10;;;;;;4995104;28;20130;-42
2022/07/22 10:40:21;;;;;;;4.38;0.93;;;20.20;93.00;;;;;;4997073;28;20490;-42
2022/07/22 10:43:04;;;;;;;4.47;0.93;;;20.20;92.90;;;;;;4997074;28;20051;-41
2022/07/22 10:45:32;;;;;;;7.45;1.35;;;20.30;93.10;;;;;;4994344;28;20108;-42
2022/07/22 10:48:00;;;;;;;5.60;1.10;;;20.20;93.00;;;;;;4978645;28;20078;-42
2022/07/22 10:50:41;;;;;;;3.67;1.05;;;20.20;93.00;;;;;;4996758;28;20531;-42
2022/07/22 10:53:08;;;;;;;4.75;0.80;;;20.30;93.30;;;;;;4995679;28;20096;-42
2022/07/22 10:55:37;;;;;;;4.55;1.02;;;20.30;93.40;;;;;;4983504;28;20524;-42
2022/07/22 10:58:39;;;;;;;2.33;0.80;;;20.40;93.20;;;;;;4996679;28;20082;-42
2022/07/22 11:01:07;;;;;;;3.28;0.90;;;20.40;92.90;;;;;;4995771;28;20058;-41
2022/07/22 11:03:35;;;;;;;5.28;1.20;;;20.40;92.80;;;;;;4995623;28;20056;-42
2022/07/22 11:06:13;;;;;;;3.38;0.98;;;20.40;93.10;;;;;;4994651;28;20150;-42
2022/07/22 11:08:40;;;;;;;6.93;1.35;;;20.40;93.20;;;;;;4960470;28;20138;-42
2022/07/22 11:11:08;;;;;;;3.70;0.80;;;20.50;93.20;;;;;;4984537;28;20089;-41
2022/07/22 11:13:36;;;;;;;3.83;1.05;;;20.60;93.00;;;;;;4996028;28;20137;-42
2022/07/22 11:16:21;;;;;;;6.15;1.27;;;20.60;92.80;;;;;;4978232;28;20058;-42
2022/07/22 11:18:49;;;;;;;5.78;1.10;;;20.70;92.70;;;;;;4995387;28;20182;-42
2022/07/22 11:21:17;;;;;;;6.50;0.95;;;20.70;92.70;;;;;;4979072;28;20145;-42
2022/07/22 11:23:44;;;;;;;3.67;1.08;;;20.80;92.40;;;;;;4996105;28;20042;-42
2022/07/22 11:26:15;;;;;;;7.70;1.17;;;20.80;92.10;;;;;;4995395;28;20050;-42
2022/07/22 11:28:42;;;;;;;5.28;0.95;;;20.80;92.20;;;;;;4994381;28;20435;-42
2022/07/22 11:31:09;;;;;;;3.75;1.20;;;20.90;92.40;;;;;;4994649;28;20141;-42
2022/07/22 11:33:35;;;;;;;3.13;0.90;;;21.00;92.30;;;;;;4995896;28;20129;-42
2022/07/22 11:36:04;;;;;;;4.35;0.73;;;21.10;92.20;;;;;;4995021;28;20046;-42
2022/07/22 11:38:47;;;;;;;5.13;0.90;;;21.10;92.00;;;;;;4993912;28;20055;-42
2022/07/22 11:41:16;;;;;;;3.63;1.27;;;21.20;91.80;;;;;;4996578;28;20472;-42
2022/07/22 11:43:43;;;;;;;4.28;1.10;;;21.10;91.30;;;;;;4995500;28;20550;-42
2022/07/22 11:46:10;;;;;;;7.60;1.40;;;21.10;91.40;;;;;;4975716;28;20140;-42
2022/07/22 11:48:38;;;;;;;4.88;1.05;;;21.10;91.50;;;;;;4994248;28;20593;-42
2022/07/22 11:51:05;;;;;;;5.80;1.20;;;21.30;91.40;;;;;;4994224;28;20050;-43
2022/07/22 11:53:31;;;;;;;3.33;0.93;;;21.30;91.30;;;;;;4995115;28;20129;-42
2022/07/22 11:55:59;;;;;;;4.63;1.10;;;21.40;91.20;;;;;;4994978;28;20125;-42
2022/07/22 11:58:37;;;;;;;2.45;1.00;;;21.50;91.00;;;;;;4983917;28;20137;-42
2022/07/22 12:01:04;;;;;;;3.45;1.05;;;21.50;91.10;;;;;;4976254;28;20459;-42
2022/07/22 12:03:31;;;;;;;4.55;1.02;;;21.50;91.10;;;;;;4984217;28;20050;-42
2022/07/22 12:05:58;;;;;;;2.97;1.08;;;21.50;91.10;;;;;;4995836;28;20498;-42
2022/07/22 12:08:25;;;;;;;17.02;5.50;;;21.50;91.00;;;;;;4995663;28;20054;-42
2022/07/22 12:10:51;;;;;;;4.03;1.10;;;21.40;90.80;;;;;;4976567;28;20130;-42
2022/07/22 12:13:18;;;;;;;7.15;1.92;;;21.40;90.80;;;;;;4995506;28;20471;-42
2022/07/22 12:15:46;;;;;;;9.90;1.83;;;21.30;90.90;;;;;;4995365;28;20141;-42
2022/07/22 12:18:20;;;;;;;5.38;1.10;;;21.10;90.90;;;;;;4995188;28;20101;-42
2022/07/22 12:20:47;;;;;;;6.05;1.30;;;21.00;91.30;;;;;;4984373;28;20514;-42
2022/07/22 12:23:14;;;;;;;6.30;1.30;;;20.90;91.60;;;;;;4978816;28;20078;-43
2022/07/22 12:25:53;;;;;;;3.53;1.30;;;20.90;91.50;;;;;;4993601;28;20141;-42
2022/07/22 12:28:20;;;;;;;3.75;1.27;;;20.90;91.30;;;;;;4993914;28;20050;-42
2022/07/22 12:30:48;;;;;;;9.65;1.45;;;20.90;91.60;;;;;;4992962;28;20058;-42
2022/07/22 12:33:15;;;;;;;2.70;1.15;;;20.90;91.50;;;;;;4975606;28;20062;-42
2022/07/22 12:35:42;;;;;;;2.97;1.20;;;20.90;91.60;;;;;;4990354;28;20055;-42
2022/07/22 12:38:09;;;;;;;3.65;1.13;;;21.00;91.60;;;;;;4994442;28;20062;-42
2022/07/22 12:40:36;;;;;;;4.20;1.27;;;21.00;91.60;;;;;;4977799;28;20085;-42
2022/07/22 12:43:04;;;;;;;5.25;1.65;;;21.00;91.40;;;;;;4977201;28;20129;-42
2022/07/22 12:45:32;;;;;;;3.67;1.38;;;21.10;91.20;;;;;;4993949;28;20058;-42
2022/07/22 12:48:07;;;;;;;7.45;1.45;;;21.00;91.20;;;;;;4994159;28;20050;-42